createdAt,value
2017-04-27T00:00:53.751Z,81
2017-04-27T00:01:54.766Z,81
2017-04-27T00:02:55.527Z,82
2017-04-27T00:03:56.290Z,81
2017-04-27T00:04:57.055Z,81
2017-04-27T00:05:57.817Z,81
2017-04-27T00:06:58.835Z,81
2017-04-27T00:07:59.595Z,81
2017-04-27T00:09:00.359Z,81
2017-04-27T00:10:01.121Z,81
2017-04-27T00:11:01.885Z,81
2017-04-27T00:12:02.899Z,81
2017-04-27T00:13:03.660Z,82
2017-04-27T00:14:04.423Z,81
2017-04-27T00:15:05.189Z,81
2017-04-27T00:16:05.954Z,82
2017-04-27T00:17:06.969Z,82
2017-04-27T00:18:07.732Z,82
2017-04-27T00:19:08.496Z,82
2017-04-27T00:20:09.452Z,81
2017-04-27T00:21:10.213Z,82
2017-04-27T00:22:11.222Z,82
2017-04-27T00:23:11.983Z,82
2017-04-27T00:24:12.745Z,82
2017-04-27T00:25:13.548Z,82
2017-04-27T00:26:14.315Z,82
2017-04-27T00:27:15.517Z,81
2017-04-27T00:28:16.280Z,82
2017-04-27T00:29:17.040Z,82
2017-04-27T00:30:17.810Z,82
2017-04-27T00:31:18.576Z,82
2017-04-27T00:32:19.590Z,82
2017-04-27T00:33:20.358Z,82
2017-04-27T00:34:21.118Z,82
2017-04-27T00:35:21.880Z,82
2017-04-27T00:36:22.644Z,82
2017-04-27T00:37:23.655Z,82
2017-04-27T00:38:24.418Z,82
2017-04-27T00:39:25.182Z,82
2017-04-27T00:40:25.947Z,82
2017-04-27T00:41:26.712Z,83
2017-04-27T00:42:27.726Z,83
2017-04-27T00:43:28.489Z,83
2017-04-27T00:44:29.253Z,83
2017-04-27T00:45:30.016Z,83
2017-04-27T00:46:30.781Z,83
2017-04-27T00:47:31.792Z,83
2017-04-27T00:48:32.557Z,83
2017-04-27T00:49:33.321Z,82
2017-04-27T00:50:34.336Z,82
2017-04-27T00:51:35.100Z,82
2017-04-27T00:52:35.865Z,82
2017-04-27T00:53:36.628Z,83
2017-04-27T00:54:37.395Z,83
2017-04-27T00:55:38.408Z,83
2017-04-27T00:56:39.175Z,82
2017-04-27T00:57:39.939Z,83
2017-04-27T00:58:40.704Z,83
2017-04-27T00:59:41.469Z,83
2017-04-27T01:00:42.486Z,83
2017-04-27T01:01:43.250Z,82
2017-04-27T01:02:44.011Z,82
2017-04-27T01:03:44.775Z,82
2017-04-27T01:04:45.540Z,82
2017-04-27T01:05:46.553Z,82
2017-04-27T01:06:47.318Z,82
2017-04-27T01:07:48.081Z,82
2017-04-27T01:08:48.849Z,82
2017-04-27T01:09:49.615Z,82
2017-04-27T01:10:50.628Z,82
2017-04-27T01:11:51.393Z,82
2017-04-27T01:12:52.159Z,82
2017-04-27T01:13:52.923Z,82
2017-04-27T01:14:53.689Z,81
2017-04-27T01:15:54.704Z,81
2017-04-27T01:16:55.469Z,82
2017-04-27T01:17:56.236Z,81
2017-04-27T01:18:57.001Z,81
2017-04-27T01:19:57.765Z,81
2017-04-27T01:20:58.789Z,81
2017-04-27T01:21:59.592Z,81
2017-04-27T01:23:00.354Z,81
2017-04-27T01:24:01.119Z,81
2017-04-27T01:25:01.887Z,81
2017-04-27T01:26:02.900Z,81
2017-04-27T01:27:03.664Z,81
2017-04-27T01:28:04.434Z,81
2017-04-27T01:29:05.196Z,82
2017-04-27T01:30:05.963Z,82
2017-04-27T01:31:06.977Z,81
2017-04-27T01:32:07.742Z,82
2017-04-27T01:33:08.507Z,82
2017-04-27T01:34:09.276Z,82
2017-04-27T01:35:10.041Z,82
2017-04-27T01:36:11.055Z,82
2017-04-27T01:37:11.820Z,82
2017-04-27T01:38:12.583Z,82
2017-04-27T01:39:13.347Z,82
2017-04-27T01:40:14.113Z,82
2017-04-27T01:41:15.129Z,82
2017-04-27T01:42:15.894Z,82
2017-04-27T01:43:16.661Z,82
2017-04-27T01:44:17.425Z,82
2017-04-27T01:45:18.190Z,82
2017-04-27T01:46:19.205Z,82
2017-04-27T01:47:19.969Z,82
2017-04-27T01:48:20.733Z,81
2017-04-27T01:49:21.503Z,81
2017-04-27T01:50:22.263Z,81
2017-04-27T01:51:23.278Z,81
2017-04-27T01:52:24.043Z,81
2017-04-27T01:53:24.809Z,81
2017-04-27T01:54:25.572Z,81
2017-04-27T01:55:26.334Z,81
2017-04-27T01:56:27.350Z,81
2017-04-27T01:57:28.113Z,81
2017-04-27T01:58:28.879Z,81
2017-04-27T01:59:29.646Z,80
2017-04-27T02:00:30.412Z,80
2017-04-27T02:01:31.427Z,80
2017-04-27T02:02:32.192Z,81
2017-04-27T02:03:32.958Z,80
2017-04-27T02:04:33.725Z,80
2017-04-27T02:05:34.490Z,80
2017-04-27T02:06:35.505Z,81
2017-04-27T02:07:36.277Z,80
2017-04-27T02:08:37.031Z,80
2017-04-27T02:09:37.795Z,80
2017-04-27T02:10:38.559Z,80
2017-04-27T02:11:39.575Z,80
2017-04-27T02:12:40.336Z,80
2017-04-27T02:13:41.100Z,81
2017-04-27T02:14:41.862Z,80
2017-04-27T02:15:42.625Z,81
2017-04-27T02:16:43.640Z,80
2017-04-27T02:17:44.402Z,80
2017-04-27T02:18:45.167Z,81
2017-04-27T02:19:45.933Z,80
2017-04-27T02:20:46.698Z,80
2017-04-27T02:21:47.716Z,80
2017-04-27T02:22:48.483Z,80
2017-04-27T02:23:49.251Z,80
2017-04-27T02:24:50.017Z,80
2017-04-27T02:25:50.789Z,80
2017-04-27T02:26:51.798Z,80
2017-04-27T02:27:52.562Z,80
2017-04-27T02:28:53.330Z,80
2017-04-27T02:29:54.097Z,80
2017-04-27T02:30:54.856Z,80
2017-04-27T02:31:55.870Z,80
2017-04-27T02:32:56.632Z,80
2017-04-27T02:33:57.395Z,80
2017-04-27T02:34:58.163Z,80
2017-04-27T02:35:58.927Z,80
2017-04-27T02:36:59.944Z,80
2017-04-27T02:38:00.710Z,79
2017-04-27T02:39:01.484Z,80
2017-04-27T02:40:02.238Z,80
2017-04-27T02:41:02.999Z,80
2017-04-27T02:42:04.014Z,80
2017-04-27T02:43:04.779Z,80
2017-04-27T02:44:05.542Z,80
2017-04-27T02:45:06.303Z,80
2017-04-27T02:46:07.072Z,80
2017-04-27T02:47:08.085Z,81
2017-04-27T02:48:08.853Z,81
2017-04-27T02:49:09.621Z,81
2017-04-27T02:50:10.385Z,81
2017-04-27T02:51:11.149Z,81
2017-04-27T02:52:12.163Z,82
2017-04-27T02:53:12.928Z,82
2017-04-27T02:54:13.692Z,82
2017-04-27T02:55:14.455Z,82
2017-04-27T02:56:15.219Z,81
2017-04-27T02:57:16.235Z,81
2017-04-27T02:58:16.997Z,82
2017-04-27T02:59:17.758Z,81
2017-04-27T03:00:18.524Z,81
2017-04-27T03:01:19.286Z,81
2017-04-27T03:02:20.303Z,81
2017-04-27T03:03:21.066Z,82
2017-04-27T03:04:21.830Z,81
2017-04-27T03:05:22.595Z,82
2017-04-27T03:06:23.359Z,82
2017-04-27T03:07:24.371Z,81
2017-04-27T03:08:25.131Z,82
2017-04-27T03:09:25.898Z,82
2017-04-27T03:10:26.663Z,82
2017-04-27T03:11:27.425Z,82
2017-04-27T03:12:28.446Z,82
2017-04-27T03:13:29.202Z,82
2017-04-27T03:14:29.969Z,82
2017-04-27T03:15:30.729Z,82
2017-04-27T03:16:31.489Z,82
2017-04-27T03:17:32.503Z,82
2017-04-27T03:18:33.267Z,82
2017-04-27T03:19:34.033Z,82
2017-04-27T03:20:34.795Z,82
2017-04-27T03:21:35.561Z,82
2017-04-27T03:22:36.579Z,82
2017-04-27T03:23:37.343Z,82
2017-04-27T03:24:38.104Z,82
2017-04-27T03:25:38.867Z,82
2017-04-27T03:26:39.632Z,82
2017-04-27T03:27:40.645Z,82
2017-04-27T03:28:41.413Z,83
2017-04-27T03:29:42.177Z,83
2017-04-27T03:30:42.939Z,84
2017-04-27T03:31:43.703Z,83
2017-04-27T03:32:44.720Z,84
2017-04-27T03:33:45.487Z,84
2017-04-27T03:34:46.251Z,84
2017-04-27T03:35:47.012Z,84
2017-04-27T03:36:47.777Z,84
2017-04-27T03:37:48.790Z,84
2017-04-27T03:38:49.555Z,85
2017-04-27T03:39:50.317Z,85
2017-04-27T03:40:51.083Z,85
2017-04-27T03:41:51.849Z,85
2017-04-27T03:42:52.865Z,85
2017-04-27T03:43:53.821Z,85
2017-04-27T03:44:54.582Z,85
2017-04-27T03:45:55.347Z,85
2017-04-27T03:46:56.111Z,85
2017-04-27T03:47:57.126Z,85
2017-04-27T03:48:57.894Z,84
2017-04-27T03:49:58.664Z,84
2017-04-27T03:50:59.426Z,84
2017-04-27T03:52:00.190Z,84
2017-04-27T03:53:01.209Z,84
2017-04-27T03:54:01.977Z,84
2017-04-27T03:55:02.739Z,85
2017-04-27T03:56:03.507Z,85
2017-04-27T03:57:04.269Z,84
2017-04-27T03:58:05.284Z,85
2017-04-27T03:59:06.047Z,84
2017-04-27T04:00:06.814Z,84
2017-04-27T04:01:07.577Z,84
2017-04-27T04:02:08.343Z,85
2017-04-27T04:03:09.359Z,85
2017-04-27T04:04:10.121Z,85
2017-04-27T04:05:11.077Z,85
2017-04-27T04:06:11.840Z,84
2017-04-27T04:07:12.608Z,85
2017-04-27T04:08:13.628Z,84
2017-04-27T04:09:14.394Z,84
2017-04-27T04:10:15.160Z,85
2017-04-27T04:11:15.922Z,84
2017-04-27T04:12:16.690Z,85
2017-04-27T04:13:17.708Z,85
2017-04-27T04:14:18.476Z,84
2017-04-27T04:15:19.247Z,85
2017-04-27T04:16:20.205Z,85
2017-04-27T04:17:20.972Z,85
2017-04-27T04:18:21.985Z,85
2017-04-27T04:19:22.754Z,85
2017-04-27T04:20:23.520Z,85
2017-04-27T04:21:24.287Z,85
2017-04-27T04:22:25.054Z,85
2017-04-27T04:23:26.070Z,85
2017-04-27T04:24:26.837Z,85
2017-04-27T04:25:27.603Z,85
2017-04-27T04:26:28.368Z,85
2017-04-27T04:27:29.132Z,85
2017-04-27T04:28:30.153Z,86
2017-04-27T04:29:30.922Z,86
2017-04-27T04:30:31.880Z,87
2017-04-27T04:31:32.647Z,87
2017-04-27T04:32:33.413Z,86
2017-04-27T04:33:34.429Z,86
2017-04-27T04:34:35.199Z,86
2017-04-27T04:35:35.967Z,86
2017-04-27T04:36:36.737Z,87
2017-04-27T04:37:37.500Z,87
2017-04-27T04:38:38.519Z,86
2017-04-27T04:39:39.286Z,86
2017-04-27T04:40:40.055Z,86
2017-04-27T04:41:40.824Z,86
2017-04-27T04:42:41.590Z,86
2017-04-27T04:43:42.608Z,86
2017-04-27T04:44:43.380Z,86
2017-04-27T04:45:44.151Z,86
2017-04-27T04:46:44.919Z,86
2017-04-27T04:47:45.686Z,86
2017-04-27T04:48:46.703Z,86
2017-04-27T04:49:47.475Z,86
2017-04-27T04:50:48.243Z,86
2017-04-27T04:51:49.012Z,86
2017-04-27T04:52:49.796Z,86
2017-04-27T04:53:50.800Z,86
2017-04-27T04:54:51.570Z,85
2017-04-27T04:55:52.338Z,85
2017-04-27T04:56:53.106Z,86
2017-04-27T04:57:53.876Z,86
2017-04-27T04:58:54.899Z,85
2017-04-27T04:59:55.669Z,85
2017-04-27T05:00:56.443Z,85
2017-04-27T05:01:57.213Z,85
2017-04-27T05:02:57.978Z,85
2017-04-27T05:03:58.996Z,84
2017-04-27T05:04:59.767Z,84
2017-04-27T05:06:00.533Z,85
2017-04-27T05:07:01.303Z,84
2017-04-27T05:08:02.072Z,84
2017-04-27T05:09:03.091Z,84
2017-04-27T05:10:03.862Z,84
2017-04-27T05:11:04.628Z,84
2017-04-27T05:12:05.399Z,84
2017-04-27T05:13:06.168Z,84
2017-04-27T05:14:07.189Z,84
2017-04-27T05:15:07.956Z,84
2017-04-27T05:16:08.726Z,84
2017-04-27T05:17:09.493Z,84
2017-04-27T05:18:10.261Z,84
2017-04-27T05:19:11.279Z,83
2017-04-27T05:20:12.051Z,84
2017-04-27T05:21:12.820Z,84
2017-04-27T05:22:13.591Z,84
2017-04-27T05:23:14.544Z,83
2017-04-27T05:24:15.564Z,83
2017-04-27T05:25:16.335Z,83
2017-04-27T05:26:17.105Z,83
2017-04-27T05:27:17.873Z,83
2017-04-27T05:28:18.642Z,83
2017-04-27T05:29:19.664Z,82
2017-04-27T05:30:20.433Z,82
2017-04-27T05:31:21.199Z,82
2017-04-27T05:32:21.967Z,81
2017-04-27T05:33:22.736Z,81
2017-04-27T05:34:23.756Z,81
2017-04-27T05:35:24.529Z,82
2017-04-27T05:36:25.296Z,81
2017-04-27T05:37:26.072Z,81
2017-04-27T05:38:26.837Z,81
2017-04-27T05:39:27.861Z,81
2017-04-27T05:40:28.628Z,81
2017-04-27T05:41:29.398Z,81
2017-04-27T05:42:30.170Z,81
2017-04-27T05:43:30.945Z,81
2017-04-27T05:44:31.960Z,80
2017-04-27T05:45:32.730Z,80
2017-04-27T05:46:33.502Z,79
2017-04-27T05:47:34.269Z,79
2017-04-27T05:48:35.043Z,78
2017-04-27T05:49:36.063Z,79
2017-04-27T05:50:36.831Z,79
2017-04-27T05:51:37.603Z,79
2017-04-27T05:52:38.374Z,79
2017-04-27T05:53:39.142Z,79
2017-04-27T05:54:40.166Z,78
2017-04-27T05:55:40.942Z,78
2017-04-27T05:56:41.708Z,78
2017-04-27T05:57:42.479Z,78
2017-04-27T05:58:43.251Z,78
2017-04-27T05:59:44.272Z,78
2017-04-27T06:00:45.045Z,77
2017-04-27T06:01:45.817Z,77
2017-04-27T06:02:46.594Z,77
2017-04-27T06:03:47.357Z,77
2017-04-27T06:04:48.377Z,77
2017-04-27T06:05:49.147Z,77
2017-04-27T06:06:49.920Z,77
2017-04-27T06:07:50.689Z,76
2017-04-27T06:08:51.463Z,76
2017-04-27T06:09:52.486Z,76
2017-04-27T06:10:53.256Z,76
2017-04-27T06:11:54.029Z,76
2017-04-27T06:12:54.800Z,76
2017-04-27T06:13:55.571Z,76
2017-04-27T06:14:56.593Z,75
2017-04-27T06:15:57.365Z,75
2017-04-27T06:16:58.317Z,75
2017-04-27T06:17:59.094Z,75
2017-04-27T06:18:59.858Z,75
2017-04-27T06:20:00.880Z,75
2017-04-27T06:21:01.699Z,75
2017-04-27T06:22:02.418Z,75
2017-04-27T06:23:03.191Z,75
2017-04-27T06:24:03.964Z,75
2017-04-27T06:25:04.988Z,74
2017-04-27T06:26:05.759Z,74
2017-04-27T06:27:06.530Z,74
2017-04-27T06:28:07.302Z,74
2017-04-27T06:29:08.097Z,74
2017-04-27T06:30:09.098Z,73
2017-04-27T06:31:09.868Z,73
2017-04-27T06:32:10.642Z,73
2017-04-27T06:33:11.415Z,73
2017-04-27T06:34:12.190Z,73
2017-04-27T06:35:13.211Z,72
2017-04-27T06:36:13.983Z,72
2017-04-27T06:37:14.755Z,72
2017-04-27T06:38:15.529Z,72
2017-04-27T06:39:16.302Z,72
2017-04-27T06:40:17.323Z,71
2017-04-27T06:41:18.097Z,71
2017-04-27T06:42:19.059Z,70
2017-04-27T06:43:19.834Z,70
2017-04-27T06:44:20.605Z,70
2017-04-27T06:45:21.636Z,69
2017-04-27T06:46:22.404Z,68
2017-04-27T06:47:23.174Z,69
2017-04-27T06:48:23.949Z,68
2017-04-27T06:49:24.726Z,67
2017-04-27T06:50:25.752Z,67
2017-04-27T06:51:26.528Z,67
2017-04-27T06:52:27.306Z,67
2017-04-27T06:53:28.082Z,66
2017-04-27T06:54:28.857Z,66
2017-04-27T06:55:29.884Z,66
2017-04-27T06:56:30.662Z,65
2017-04-27T06:57:31.439Z,64
2017-04-27T06:58:32.217Z,62
2017-04-27T06:59:32.996Z,62
2017-04-27T07:00:34.022Z,62
2017-04-27T07:01:34.800Z,61
2017-04-27T07:02:35.576Z,61
2017-04-27T07:03:36.358Z,60
2017-04-27T07:04:37.136Z,60
2017-04-27T07:05:38.165Z,59
2017-04-27T07:06:38.947Z,58
2017-04-27T07:07:39.728Z,58
2017-04-27T07:08:40.508Z,57
2017-04-27T07:09:41.289Z,57
2017-04-27T07:10:42.320Z,57
2017-04-27T07:11:43.098Z,57
2017-04-27T07:12:43.877Z,57
2017-04-27T07:13:44.659Z,57
2017-04-27T07:14:45.445Z,56
2017-04-27T07:15:46.482Z,56
2017-04-27T07:16:47.262Z,55
2017-04-27T07:17:48.041Z,54
2017-04-27T07:18:48.821Z,53
2017-04-27T07:19:49.602Z,53
2017-04-27T07:20:50.637Z,53
2017-04-27T07:21:51.605Z,53
2017-04-27T07:22:52.390Z,51
2017-04-27T07:23:53.174Z,51
2017-04-27T07:24:53.956Z,50
2017-04-27T07:25:54.986Z,50
2017-04-27T07:26:55.768Z,50
2017-04-27T07:27:56.550Z,50
2017-04-27T07:28:57.335Z,51
2017-04-27T07:29:58.116Z,51
2017-04-27T07:30:59.152Z,50
2017-04-27T07:31:59.935Z,49
2017-04-27T07:33:00.719Z,49
2017-04-27T07:34:01.501Z,49
2017-04-27T07:35:02.286Z,48
2017-04-27T07:36:03.320Z,47
2017-04-27T07:37:04.102Z,47
2017-04-27T07:38:04.885Z,47
2017-04-27T07:39:05.667Z,47
2017-04-27T07:40:06.449Z,46
2017-04-27T07:41:07.483Z,45
2017-04-27T07:42:08.261Z,46
2017-04-27T07:43:09.041Z,46
2017-04-27T07:44:09.824Z,47
2017-04-27T07:45:10.609Z,47
2017-04-27T07:46:11.644Z,47
2017-04-27T07:47:12.428Z,47
2017-04-27T07:48:13.211Z,47
2017-04-27T07:49:13.997Z,47
2017-04-27T07:50:14.786Z,45
2017-04-27T07:51:15.823Z,45
2017-04-27T07:52:16.614Z,41
2017-04-27T07:53:17.419Z,40
2017-04-27T07:54:18.197Z,40
2017-04-27T07:55:18.980Z,40
2017-04-27T07:56:20.020Z,41
2017-04-27T07:57:20.810Z,40
2017-04-27T07:58:21.599Z,40
2017-04-27T07:59:22.390Z,40
2017-04-27T08:00:23.181Z,39
2017-04-27T08:01:24.218Z,40
2017-04-27T08:02:25.068Z,40
2017-04-27T08:03:25.853Z,39
2017-04-27T08:04:26.637Z,39
2017-04-27T08:05:27.422Z,39
2017-04-27T08:06:28.459Z,40
2017-04-27T08:07:29.242Z,40
2017-04-27T08:08:30.021Z,41
2017-04-27T08:09:30.804Z,41
2017-04-27T08:10:31.587Z,42
2017-04-27T08:11:32.621Z,42
2017-04-27T08:12:33.408Z,41
2017-04-27T08:13:34.201Z,40
2017-04-27T08:14:34.978Z,39
2017-04-27T08:15:35.769Z,36
2017-04-27T08:16:36.818Z,35
2017-04-27T08:17:37.597Z,35
2017-04-27T08:18:38.387Z,34
2017-04-27T08:19:39.177Z,33
2017-04-27T08:20:39.971Z,32
2017-04-27T08:21:41.009Z,34
2017-04-27T08:22:41.803Z,36
2017-04-27T08:23:42.592Z,34
2017-04-27T08:24:43.379Z,32
2017-04-27T08:25:44.168Z,32
2017-04-27T08:26:45.208Z,31
2017-04-27T08:27:45.997Z,30
2017-04-27T08:28:46.786Z,29
2017-04-27T08:29:47.577Z,28
2017-04-27T08:30:48.365Z,29
2017-04-27T08:31:49.403Z,31
2017-04-27T08:32:50.196Z,33
2017-04-27T08:33:50.985Z,33
2017-04-27T08:34:51.773Z,32
2017-04-27T08:35:52.561Z,30
2017-04-27T08:36:53.601Z,30
2017-04-27T08:37:54.392Z,31
2017-04-27T08:38:55.182Z,31
2017-04-27T08:39:55.976Z,32
2017-04-27T08:40:56.764Z,32
2017-04-27T08:41:57.805Z,32
2017-04-27T08:42:58.596Z,32
2017-04-27T08:43:59.386Z,31
2017-04-27T08:45:00.178Z,32
2017-04-27T08:46:00.970Z,31
2017-04-27T08:47:02.010Z,31
2017-04-27T08:48:02.796Z,31
2017-04-27T08:49:03.586Z,32
2017-04-27T08:50:04.376Z,31
2017-04-27T08:51:05.160Z,32
2017-04-27T08:52:06.200Z,33
2017-04-27T08:53:06.989Z,34
2017-04-27T08:54:07.774Z,34
2017-04-27T08:55:08.563Z,34
2017-04-27T08:56:09.349Z,34
2017-04-27T08:57:10.389Z,34
2017-04-27T08:58:11.178Z,35
2017-04-27T08:59:11.968Z,34
2017-04-27T09:00:12.756Z,33
2017-04-27T09:01:13.545Z,30
2017-04-27T09:02:14.584Z,30
2017-04-27T09:03:15.373Z,31
2017-04-27T09:04:16.192Z,30
2017-04-27T09:05:16.953Z,32
2017-04-27T09:06:17.744Z,32
2017-04-27T09:07:18.786Z,31
2017-04-27T09:08:19.572Z,30
2017-04-27T09:09:20.363Z,28
2017-04-27T09:10:21.153Z,27
2017-04-27T09:11:21.949Z,28
2017-04-27T09:12:22.994Z,28
2017-04-27T09:13:23.784Z,28
2017-04-27T09:14:24.574Z,29
2017-04-27T09:15:25.361Z,29
2017-04-27T09:16:26.150Z,30
2017-04-27T09:17:27.183Z,30
2017-04-27T09:18:27.976Z,31
2017-04-27T09:19:28.765Z,31
2017-04-27T09:20:29.553Z,30
2017-04-27T09:21:30.342Z,30
2017-04-27T09:22:31.381Z,28
2017-04-27T09:23:32.172Z,26
2017-04-27T09:24:32.963Z,26
2017-04-27T09:25:33.753Z,26
2017-04-27T09:26:34.552Z,25
2017-04-27T09:27:35.591Z,23
2017-04-27T09:28:36.382Z,23
2017-04-27T09:29:37.174Z,23
2017-04-27T09:30:37.966Z,24
2017-04-27T09:31:38.761Z,24
2017-04-27T09:32:39.807Z,23
2017-04-27T09:33:40.598Z,24
2017-04-27T09:34:41.391Z,24
2017-04-27T09:35:42.183Z,25
2017-04-27T09:36:42.972Z,27
2017-04-27T09:37:44.014Z,27
2017-04-27T09:38:44.802Z,27
2017-04-27T09:39:45.593Z,30
2017-04-27T09:40:46.383Z,30
2017-04-27T09:41:47.175Z,29
2017-04-27T09:42:48.217Z,29
2017-04-27T09:43:49.006Z,29
2017-04-27T09:44:49.796Z,27
2017-04-27T09:45:50.583Z,27
2017-04-27T09:46:51.372Z,27
2017-04-27T09:47:52.462Z,28
2017-04-27T09:48:53.247Z,28
2017-04-27T09:49:54.037Z,27
2017-04-27T09:50:54.827Z,26
2017-04-27T09:51:55.617Z,25
2017-04-27T09:52:56.707Z,25
2017-04-27T09:53:57.499Z,24
2017-04-27T09:54:58.290Z,23
2017-04-27T09:55:59.082Z,22
2017-04-27T09:56:59.876Z,22
2017-04-27T09:58:00.967Z,21
2017-04-27T09:59:01.759Z,21
2017-04-27T10:00:02.554Z,22
2017-04-27T10:01:03.346Z,21
2017-04-27T10:02:04.138Z,22
2017-04-27T10:03:05.237Z,22
2017-04-27T10:04:06.030Z,20
2017-04-27T10:05:06.829Z,19
2017-04-27T10:06:07.626Z,19
2017-04-27T10:07:08.426Z,18
2017-04-27T10:08:09.529Z,19
2017-04-27T10:09:10.325Z,19
2017-04-27T10:10:11.130Z,18
2017-04-27T10:11:11.932Z,19
2017-04-27T10:12:12.736Z,19
2017-04-27T10:13:13.785Z,18
2017-04-27T10:14:14.590Z,18
2017-04-27T10:15:15.396Z,17
2017-04-27T10:16:16.204Z,18
2017-04-27T10:17:17.012Z,18
2017-04-27T10:18:18.067Z,19
2017-04-27T10:19:18.873Z,19
2017-04-27T10:20:19.679Z,19
2017-04-27T10:21:20.480Z,18
2017-04-27T10:22:21.284Z,18
2017-04-27T10:23:22.338Z,18
2017-04-27T10:24:23.137Z,18
2017-04-27T10:25:23.938Z,18
2017-04-27T10:26:24.738Z,19
2017-04-27T10:27:25.536Z,19
2017-04-27T10:28:26.582Z,20
2017-04-27T10:29:27.379Z,23
2017-04-27T10:30:28.162Z,23
2017-04-27T10:31:28.952Z,25
2017-04-27T10:32:29.744Z,25
2017-04-27T10:33:30.781Z,25
2017-04-27T10:34:31.575Z,25
2017-04-27T10:35:32.362Z,25
2017-04-27T10:36:33.144Z,25
2017-04-27T10:37:33.934Z,26
2017-04-27T10:38:34.973Z,25
2017-04-27T10:39:35.759Z,25
2017-04-27T10:40:36.549Z,26
2017-04-27T10:41:37.340Z,25
2017-04-27T10:42:38.130Z,24
2017-04-27T10:43:39.172Z,21
2017-04-27T10:44:39.961Z,21
2017-04-27T10:45:40.749Z,20
2017-04-27T10:46:41.539Z,19
2017-04-27T10:47:42.331Z,19
2017-04-27T10:48:43.374Z,18
2017-04-27T10:49:44.168Z,19
2017-04-27T10:50:44.963Z,19
2017-04-27T10:51:45.753Z,18
2017-04-27T10:52:46.544Z,21
2017-04-27T10:53:47.584Z,22
2017-04-27T10:54:48.372Z,23
2017-04-27T10:55:49.161Z,25
2017-04-27T10:56:49.949Z,27
2017-04-27T10:57:50.739Z,29
2017-04-27T10:58:51.780Z,29
2017-04-27T10:59:52.569Z,30
2017-04-27T11:00:53.360Z,30
2017-04-27T11:01:54.152Z,29
2017-04-27T11:02:54.944Z,29
2017-04-27T11:03:56.039Z,28
2017-04-27T11:04:56.827Z,27
2017-04-27T11:05:57.617Z,28
2017-04-27T11:06:58.407Z,29
2017-04-27T11:07:59.198Z,28
2017-04-27T11:09:00.290Z,27
2017-04-27T11:10:01.081Z,25
2017-04-27T11:11:01.874Z,25
2017-04-27T11:12:02.667Z,25
2017-04-27T11:13:03.456Z,24
2017-04-27T11:14:04.549Z,24
2017-04-27T11:15:05.345Z,22
2017-04-27T11:16:06.137Z,21
2017-04-27T11:17:06.934Z,21
2017-04-27T11:18:07.722Z,21
2017-04-27T11:19:08.816Z,21
2017-04-27T11:20:09.611Z,20
2017-04-27T11:21:10.406Z,20
2017-04-27T11:22:11.209Z,20
2017-04-27T11:23:11.999Z,20
2017-04-27T11:24:13.099Z,18
2017-04-27T11:25:13.897Z,18
2017-04-27T11:26:14.695Z,18
2017-04-27T11:27:15.492Z,19
2017-04-27T11:28:16.293Z,19
2017-04-27T11:29:17.398Z,18
2017-04-27T11:30:18.194Z,18
2017-04-27T11:31:18.998Z,16
2017-04-27T11:32:19.796Z,15
2017-04-27T11:33:20.590Z,18
2017-04-27T11:34:21.680Z,21
2017-04-27T11:35:22.473Z,24
2017-04-27T11:36:23.265Z,24
2017-04-27T11:37:24.059Z,23
2017-04-27T11:38:24.852Z,23
2017-04-27T11:39:25.913Z,23
2017-04-27T11:40:26.685Z,22
2017-04-27T11:41:27.476Z,23
2017-04-27T11:42:28.272Z,22
2017-04-27T11:43:29.063Z,20
2017-04-27T11:44:30.105Z,18
2017-04-27T11:45:30.897Z,19
2017-04-27T11:46:31.688Z,19
2017-04-27T11:47:32.479Z,19
2017-04-27T11:48:33.269Z,21
2017-04-27T11:49:34.313Z,21
2017-04-27T11:50:35.109Z,21
2017-04-27T11:51:35.900Z,20
2017-04-27T11:52:36.690Z,20
2017-04-27T11:53:37.479Z,19
2017-04-27T11:54:38.517Z,19
2017-04-27T11:55:39.306Z,19
2017-04-27T11:56:40.094Z,21
2017-04-27T11:57:40.886Z,22
2017-04-27T11:58:41.678Z,22
2017-04-27T11:59:42.720Z,21
2017-04-27T12:00:43.513Z,21
2017-04-27T12:01:44.306Z,19
2017-04-27T12:02:45.096Z,19
2017-04-27T12:03:45.887Z,19
2017-04-27T12:04:46.929Z,19
2017-04-27T12:05:47.723Z,21
2017-04-27T12:06:48.518Z,21
2017-04-27T12:07:49.312Z,21
2017-04-27T12:08:50.110Z,21
2017-04-27T12:09:51.154Z,22
2017-04-27T12:10:51.949Z,22
2017-04-27T12:11:52.747Z,22
2017-04-27T12:12:53.544Z,22
2017-04-27T12:13:54.335Z,22
2017-04-27T12:14:55.375Z,23
2017-04-27T12:15:56.167Z,25
2017-04-27T12:16:56.960Z,26
2017-04-27T12:17:57.747Z,25
2017-04-27T12:18:58.536Z,25
2017-04-27T12:19:59.578Z,25
2017-04-27T12:21:00.368Z,25
2017-04-27T12:22:01.159Z,26
2017-04-27T12:23:01.948Z,26
2017-04-27T12:24:02.739Z,26
2017-04-27T12:25:03.779Z,26
2017-04-27T12:26:04.575Z,25
2017-04-27T12:27:05.552Z,23
2017-04-27T12:28:06.340Z,22
2017-04-27T12:29:07.134Z,21
2017-04-27T12:30:08.176Z,19
2017-04-27T12:31:08.967Z,19
2017-04-27T12:32:09.756Z,18
2017-04-27T12:33:10.547Z,17
2017-04-27T12:34:11.340Z,16
2017-04-27T12:35:12.385Z,16
2017-04-27T12:36:13.179Z,17
2017-04-27T12:37:13.971Z,17
2017-04-27T12:38:14.763Z,18
2017-04-27T12:39:15.557Z,19
2017-04-27T12:40:16.602Z,18
2017-04-27T12:41:17.397Z,18
2017-04-27T12:42:18.193Z,19
2017-04-27T12:43:18.992Z,18
2017-04-27T12:44:19.784Z,19
2017-04-27T12:45:20.829Z,18
2017-04-27T12:46:21.625Z,19
2017-04-27T12:47:22.420Z,20
2017-04-27T12:48:23.218Z,20
2017-04-27T12:49:24.015Z,20
2017-04-27T12:50:25.066Z,20
2017-04-27T12:51:25.861Z,20
2017-04-27T12:52:26.844Z,20
2017-04-27T12:53:27.632Z,20
2017-04-27T12:54:28.422Z,19
2017-04-27T12:55:29.464Z,20
2017-04-27T12:56:30.256Z,21
2017-04-27T12:57:31.080Z,22
2017-04-27T12:58:31.840Z,22
2017-04-27T12:59:32.632Z,23
2017-04-27T13:00:33.671Z,24
2017-04-27T13:01:34.463Z,24
2017-04-27T13:02:35.254Z,24
2017-04-27T13:03:36.044Z,24
2017-04-27T13:04:36.834Z,24
2017-04-27T13:05:37.871Z,24
2017-04-27T13:06:38.663Z,25
2017-04-27T13:07:39.448Z,25
2017-04-27T13:08:40.239Z,26
2017-04-27T13:09:41.023Z,27
2017-04-27T13:10:42.063Z,27
2017-04-27T13:11:43.044Z,27
2017-04-27T13:12:43.830Z,28
2017-04-27T13:13:44.620Z,28
2017-04-27T13:14:45.402Z,28
2017-04-27T13:15:46.440Z,28
2017-04-27T13:16:47.228Z,27
2017-04-27T13:17:48.017Z,28
2017-04-27T13:18:48.803Z,28
2017-04-27T13:19:49.589Z,28
2017-04-27T13:20:50.642Z,28
2017-04-27T13:21:51.413Z,28
2017-04-27T13:22:52.203Z,29
2017-04-27T13:23:52.997Z,29
2017-04-27T13:24:53.789Z,28
2017-04-27T13:25:54.827Z,29
2017-04-27T13:26:55.614Z,29
2017-04-27T13:27:56.404Z,29
2017-04-27T13:28:57.193Z,29
2017-04-27T13:29:57.978Z,30
2017-04-27T13:30:59.020Z,29
2017-04-27T13:31:59.812Z,28
2017-04-27T13:33:00.602Z,27
2017-04-27T13:34:01.392Z,28
2017-04-27T13:35:02.180Z,28
2017-04-27T13:36:03.217Z,28
2017-04-27T13:37:04.006Z,30
2017-04-27T13:38:04.797Z,30
2017-04-27T13:39:05.584Z,30
2017-04-27T13:40:06.368Z,30
2017-04-27T13:41:07.403Z,30
2017-04-27T13:42:08.194Z,29
2017-04-27T13:43:08.981Z,29
2017-04-27T13:44:09.767Z,29
2017-04-27T13:45:10.555Z,29
2017-04-27T13:46:11.590Z,30
2017-04-27T13:47:12.374Z,30
2017-04-27T13:48:13.156Z,31
2017-04-27T13:49:13.942Z,32
2017-04-27T13:50:14.722Z,33
2017-04-27T13:51:15.944Z,34
2017-04-27T13:52:16.727Z,34
2017-04-27T13:53:17.509Z,34
2017-04-27T13:54:18.292Z,34
2017-04-27T13:55:19.076Z,33
2017-04-27T13:56:20.111Z,33
2017-04-27T13:57:20.892Z,31
2017-04-27T13:58:21.676Z,30
2017-04-27T13:59:22.460Z,29
2017-04-27T14:00:23.242Z,28
2017-04-27T14:01:24.274Z,28
2017-04-27T14:02:25.055Z,28
2017-04-27T14:03:25.840Z,28
2017-04-27T14:04:26.623Z,28
2017-04-27T14:05:27.404Z,29
2017-04-27T14:06:28.439Z,29
2017-04-27T14:07:29.224Z,28
2017-04-27T14:08:30.008Z,27
2017-04-27T14:09:30.789Z,28
2017-04-27T14:10:31.571Z,29
2017-04-27T14:11:32.604Z,28
2017-04-27T14:12:33.392Z,28
2017-04-27T14:13:34.177Z,28
2017-04-27T14:14:34.962Z,28
2017-04-27T14:15:35.750Z,27
2017-04-27T14:16:36.790Z,27
2017-04-27T14:17:37.581Z,25
2017-04-27T14:18:38.373Z,25
2017-04-27T14:19:39.166Z,25
2017-04-27T14:20:39.958Z,24
2017-04-27T14:21:41.002Z,24
2017-04-27T14:22:41.794Z,24
2017-04-27T14:23:42.582Z,25
2017-04-27T14:24:43.375Z,25
2017-04-27T14:25:44.165Z,25
2017-04-27T14:26:45.209Z,23
2017-04-27T14:27:46.000Z,24